KFRI/FRI METAR and TAF weather

Enter ICAO airport designator
Station Type Date Time Source
KFRI METAR 2021/05/14 03:56 UTC NOAA

KFRI 140356Z AUTO 15009KT 6SM HZ CLR 15/04 A3021 RMK AO2 SLP226 T01540044


Station Type Date Time Source
KFRI Decoded METAR 2021/05/14 03:56 UTC NOAA

Fort Riley, Marshall AAF Ft Riley, KS, United States (KFRI) 39-03-20N 096-45-51W
May 13, 2021 - 11:56 PM EDT / 2021.05.14 0356 UTC
Wind: from the SSE (150 degrees) at 10 MPH (9 KT):0
Visibility: 6 mile(s):0
Sky conditions: clear
Weather: haze
Temperature: 59.7 F (15.4 C)
Dew Point: 39.9 F (4.4 C)
Relative Humidity: 47%
Pressure (altimeter): 30.21 in. Hg (1023 hPa)
ob: KFRI 140356Z AUTO 15009KT 6SM HZ CLR 15/04 A3021 RMK AO2 SLP226 T01540044
cycle: 4

Station Type Date Time Source
KFRI TAF 2021/05/13 21:18 UTC NOAA

TAF KFRI 132100Z 1321/1503 16009KT 9999 FEW065 QNH3016INS
BECMG 1409/1410 16006KT 9000 -SHRA BKN020 QNH3013INS
BECMG 1416/1417 18015G20KT 9999 NSW SCT030 QNH3002INS
BECMG 1421/1422 17010G15KT 9999 FEW035 QNH3000INS TX21/1421Z TN07/1408Z

Example: see airport list